Time;durP1;ratioP1;P1;durP2;ratioP2;P2;SDS_P1;SDS_P2;PMS_P1;PMS_P2;Temp;Humidity;BMP_temperature;BMP_pressure;BME280_temperature;BME280_humidity;BME280_pressure;Samples;Min_cycle;Max_cycle;Signal;HPM_P1;HPM_P2
2023/08/06 04:01:50;;;;;;;1.83;1.67;;;16.50;97.30;;;;;;5382817;23;20567;-67
2023/08/06 04:04:16;;;;;;;2.30;2.10;;;16.50;97.30;;;;;;4930178;29;20498;-66
2023/08/06 04:06:41;;;;;;;2.60;2.00;;;16.50;97.30;;;;;;4931274;29;20627;-67
2023/08/06 04:09:07;;;;;;;3.00;1.83;;;16.50;97.30;;;;;;4934933;29;20176;-67
2023/08/06 04:11:32;;;;;;;3.07;2.47;;;16.50;97.30;;;;;;4929292;29;20591;-66
2023/08/06 04:13:58;;;;;;;1.63;1.53;;;16.50;97.30;;;;;;4928053;29;20527;-66
2023/08/06 04:16:26;;;;;;;6.30;3.77;;;16.50;97.30;;;;;;4945169;23;20248;-90
2023/08/06 04:18:52;;;;;;;3.53;2.70;;;16.50;97.30;;;;;;4933706;29;20192;-90
2023/08/06 04:21:18;;;;;;;1.80;1.70;;;16.40;97.30;;;;;;4933835;29;20415;-90
2023/08/06 04:23:43;;;;;;;3.47;1.97;;;16.50;97.30;;;;;;4933691;29;20424;-90
2023/08/06 04:26:09;;;;;;;3.23;3.03;;;16.50;97.30;;;;;;4933700;29;20204;-90
2023/08/06 04:28:34;;;;;;;3.00;2.43;;;16.50;97.30;;;;;;4949024;23;20226;-67
2023/08/06 04:31:00;;;;;;;1.90;1.80;;;16.50;97.30;;;;;;4949225;28;20286;-67
2023/08/06 04:33:26;;;;;;;2.13;1.97;;;16.50;97.30;;;;;;4948010;28;20179;-67
2023/08/06 04:35:58;;;;;;;5.80;2.70;;;16.40;97.30;;;;;;4937549;28;20222;-67
2023/08/06 04:38:27;;;;;;;3.10;2.90;;;16.50;97.30;;;;;;4932457;29;20555;-67
2023/08/06 04:40:53;;;;;;;1.37;1.33;;;16.50;97.30;;;;;;4953561;28;20482;-67
2023/08/06 04:43:19;;;;;;;1.70;1.50;;;16.50;97.30;;;;;;4937566;28;20847;-67
2023/08/06 04:45:53;;;;;;;5.80;2.73;;;16.40;97.30;;;;;;4940609;29;20184;-67
2023/08/06 04:48:18;;;;;;;7.10;3.10;;;16.50;97.30;;;;;;4940029;29;20611;-67
2023/08/06 04:50:48;;;;;;;1.97;1.87;;;16.50;97.30;;;;;;4944798;28;20541;-68
2023/08/06 04:53:14;;;;;;;1.67;1.57;;;16.50;97.30;;;;;;4943931;29;20588;-67
2023/08/06 04:55:40;;;;;;;2.40;2.03;;;16.50;97.30;;;;;;4951151;28;20455;-68
2023/08/06 04:58:05;;;;;;;1.30;1.20;;;16.50;97.30;;;;;;4941871;29;20223;-68
2023/08/06 05:00:31;;;;;;;2.60;1.80;;;16.50;97.30;;;;;;4948027;29;20215;-67
2023/08/06 05:02:59;;;;;;;2.07;1.70;;;16.50;97.30;;;;;;4933064;29;20176;-67
2023/08/06 05:05:25;;;;;;;2.87;1.90;;;16.50;97.30;;;;;;4931823;29;20224;-68
2023/08/06 05:07:50;;;;;;;1.47;1.40;;;16.50;97.30;;;;;;4939587;28;20439;-68
2023/08/06 05:10:16;;;;;;;6.43;2.30;;;16.50;97.30;;;;;;4945952;29;20260;-68
2023/08/06 05:12:42;;;;;;;2.40;2.13;;;16.50;97.30;;;;;;4952660;28;20189;-68
2023/08/06 05:15:08;;;;;;;1.53;1.43;;;16.50;97.30;;;;;;4943475;28;20286;-68
2023/08/06 05:17:35;;;;;;;1.63;1.53;;;16.50;97.30;;;;;;4949684;29;20223;-68
2023/08/06 05:20:00;;;;;;;1.93;1.83;;;16.50;97.30;;;;;;4940668;29;20902;-68
2023/08/06 05:22:26;;;;;;;6.13;2.10;;;16.50;97.30;;;;;;4939290;29;20200;-68
2023/08/06 05:24:51;;;;;;;1.30;1.20;;;16.50;97.30;;;;;;4944303;29;20349;-68
2023/08/06 05:27:18;;;;;;;1.23;1.10;;;16.50;97.30;;;;;;4942158;28;20187;-68
2023/08/06 05:29:45;;;;;;;1.73;1.70;;;16.50;97.30;;;;;;4943491;28;20721;-68
2023/08/06 05:32:10;;;;;;;5.57;2.40;;;16.60;97.30;;;;;;4935167;28;20458;-68
2023/08/06 05:34:36;;;;;;;2.07;1.90;;;16.60;97.30;;;;;;4943090;29;20938;-68
2023/08/06 05:37:03;;;;;;;2.70;2.43;;;16.60;97.30;;;;;;4953475;28;20286;-69
2023/08/06 05:39:28;;;;;;;1.83;1.73;;;16.60;97.30;;;;;;4948566;28;20283;-68
2023/08/06 05:41:55;;;;;;;2.70;1.40;;;16.50;97.30;;;;;;4948906;29;20478;-68
2023/08/06 05:44:21;;;;;;;2.53;1.90;;;16.50;97.30;;;;;;4950814;28;20189;-68
2023/08/06 05:46:46;;;;;;;1.20;1.10;;;16.50;97.30;;;;;;4950736;28;20422;-67
2023/08/06 05:49:13;;;;;;;4.97;1.53;;;16.50;97.30;;;;;;4952450;28;20430;-68
2023/08/06 05:51:39;;;;;;;1.10;1.00;;;16.50;97.30;;;;;;4951402;28;20217;-68
2023/08/06 05:54:04;;;;;;;1.60;1.50;;;16.50;97.30;;;;;;4952070;28;20803;-67
2023/08/06 05:56:30;;;;;;;3.13;1.83;;;16.40;97.30;;;;;;4952311;28;20203;-68
2023/08/06 05:58:55;;;;;;;2.60;1.30;;;16.40;97.30;;;;;;4951049;28;20186;-67
2023/08/06 06:01:21;;;;;;;1.60;1.40;;;16.40;97.30;;;;;;4944122;28;20290;-68
2023/08/06 06:03:47;;;;;;;1.10;1.00;;;16.40;97.30;;;;;;4950646;29;20183;-67
2023/08/06 06:06:12;;;;;;;1.13;1.10;;;16.40;97.30;;;;;;4945179;28;20283;-68
2023/08/06 06:08:38;;;;;;;1.43;1.20;;;16.30;97.30;;;;;;4941328;29;20184;-68
2023/08/06 06:11:03;;;;;;;1.63;1.53;;;16.30;97.30;;;;;;4950636;29;20582;-68
2023/08/06 06:13:29;;;;;;;1.00;0.90;;;16.30;97.30;;;;;;4952321;28;20695;-68
2023/08/06 06:15:55;;;;;;;1.73;1.63;;;16.40;97.30;;;;;;4944132;29;20687;-68
2023/08/06 06:18:21;;;;;;;1.63;1.23;;;16.40;97.30;;;;;;4950730;28;20207;-68
2023/08/06 06:20:47;;;;;;;3.00;1.23;;;16.40;97.30;;;;;;4950433;29;20990;-68
2023/08/06 06:23:14;;;;;;;1.90;1.67;;;16.40;97.30;;;;;;4944579;29;20519;-68
2023/08/06 06:25:57;;;;;;;1.10;1.00;;;16.50;97.30;;;;;;4948295;29;20183;-68
2023/08/06 06:28:23;;;;;;;1.47;1.30;;;16.50;97.30;;;;;;4951748;28;20470;-71
2023/08/06 06:30:49;;;;;;;1.40;1.30;;;16.50;97.30;;;;;;4949811;28;20447;-68
2023/08/06 06:33:14;;;;;;;1.47;1.47;;;16.50;97.30;;;;;;4951696;28;20194;-68
2023/08/06 06:35:40;;;;;;;2.03;1.33;;;16.50;97.30;;;;;;4954261;28;20226;-68
2023/08/06 06:38:05;;;;;;;1.07;1.00;;;16.50;97.30;;;;;;4945079;29;20182;-68
2023/08/06 06:40:31;;;;;;;2.03;1.53;;;16.50;97.30;;;;;;4950214;28;20450;-67
2023/08/06 06:42:56;;;;;;;2.43;1.60;;;16.60;97.30;;;;;;4947995;28;20187;-67
2023/08/06 06:45:22;;;;;;;3.50;1.60;;;16.60;97.30;;;;;;4945330;29;20238;-68
2023/08/06 06:47:47;;;;;;;1.00;0.90;;;16.60;97.30;;;;;;4950807;28;20187;-68
2023/08/06 06:50:13;;;;;;;2.90;2.13;;;16.60;97.30;;;;;;4949612;28;20183;-67
2023/08/06 06:52:38;;;;;;;1.87;1.77;;;16.60;97.30;;;;;;4949522;28;20432;-67
2023/08/06 06:55:04;;;;;;;2.33;1.20;;;16.70;97.30;;;;;;4951349;28;20674;-68
2023/08/06 06:57:30;;;;;;;3.23;1.80;;;16.70;97.30;;;;;;4950580;28;20229;-68
2023/08/06 06:59:55;;;;;;;3.07;1.47;;;16.70;97.30;;;;;;4949239;28;20851;-67
2023/08/06 07:02:21;;;;;;;0.97;0.87;;;16.70;97.30;;;;;;4955035;28;20690;-68
2023/08/06 07:04:47;;;;;;;1.37;1.27;;;16.70;97.30;;;;;;4960879;28;20186;-67
2023/08/06 07:07:12;;;;;;;7.73;1.70;;;16.80;97.30;;;;;;4951587;28;20194;-67
2023/08/06 07:09:38;;;;;;;1.57;1.00;;;16.80;97.30;;;;;;4956859;28;20538;-67
2023/08/06 07:12:04;;;;;;;1.23;1.20;;;16.80;97.30;;;;;;4950491;28;20207;-67
2023/08/06 07:14:29;;;;;;;2.17;1.40;;;16.80;97.30;;;;;;4958669;28;20179;-67
2023/08/06 07:16:55;;;;;;;1.00;0.90;;;16.80;97.30;;;;;;4962102;28;20941;-67
2023/08/06 07:19:21;;;;;;;1.10;1.00;;;16.90;97.30;;;;;;4956584;28;20179;-66
2023/08/06 07:21:46;;;;;;;1.03;0.93;;;16.90;97.30;;;;;;4953675;28;20198;-67
2023/08/06 07:24:12;;;;;;;2.03;1.27;;;16.90;97.30;;;;;;4955179;28;20186;-67
2023/08/06 07:26:38;;;;;;;0.90;0.80;;;17.00;97.30;;;;;;4955653;28;20238;-67
2023/08/06 07:29:03;;;;;;;0.90;0.80;;;17.00;97.30;;;;;;4950364;28;20227;-67
2023/08/06 07:31:29;;;;;;;5.23;1.10;;;17.00;97.30;;;;;;4961331;28;20334;-68
2023/08/06 07:33:55;;;;;;;2.73;1.20;;;17.10;97.30;;;;;;4951806;28;20273;-67
2023/08/06 07:36:20;;;;;;;1.53;1.40;;;17.10;97.30;;;;;;4948758;28;20225;-67
2023/08/06 07:38:47;;;;;;;1.53;1.30;;;17.10;97.30;;;;;;4950277;28;20190;-67
2023/08/06 07:41:12;;;;;;;0.97;0.90;;;17.10;97.30;;;;;;4950532;28;20324;-67
2023/08/06 07:43:38;;;;;;;1.20;1.10;;;17.10;97.30;;;;;;4949120;28;20431;-67
2023/08/06 07:46:04;;;;;;;1.17;1.10;;;17.10;97.30;;;;;;4949189;28;20187;-68
2023/08/06 07:48:29;;;;;;;1.10;1.00;;;17.10;97.30;;;;;;4949368;28;20707;-67
2023/08/06 07:50:56;;;;;;;1.97;1.37;;;17.10;97.30;;;;;;4948974;28;20556;-67
2023/08/06 07:53:23;;;;;;;1.20;1.10;;;17.20;97.30;;;;;;4950551;28;20647;-67
2023/08/06 07:55:52;;;;;;;1.67;1.57;;;17.20;97.30;;;;;;4950095;28;20974;-67
2023/08/06 07:58:18;;;;;;;1.13;1.03;;;17.20;97.30;;;;;;4950181;28;20415;-66
2023/08/06 08:00:45;;;;;;;0.97;0.87;;;17.30;97.30;;;;;;4950145;28;20469;-67
2023/08/06 08:03:15;;;;;;;1.40;1.30;;;17.30;97.30;;;;;;4950345;28;20422;-66
2023/08/06 08:05:41;;;;;;;1.70;1.60;;;17.40;97.30;;;;;;4950263;28;20426;-67
2023/08/06 08:08:07;;;;;;;1.13;1.03;;;17.40;97.30;;;;;;4951671;28;20422;-67
2023/08/06 08:10:34;;;;;;;1.03;0.93;;;17.40;97.30;;;;;;4954130;28;20443;-66
2023/08/06 08:13:02;;;;;;;1.00;0.90;;;17.40;97.30;;;;;;4954112;28;20175;-67
2023/08/06 08:15:28;;;;;;;0.93;0.83;;;17.40;97.30;;;;;;4949933;28;20438;-66
2023/08/06 08:17:54;;;;;;;1.17;1.07;;;17.50;97.30;;;;;;4956924;28;20426;-67
2023/08/06 08:20:21;;;;;;;1.10;1.00;;;17.50;97.30;;;;;;4962206;28;20477;-67
2023/08/06 08:22:47;;;;;;;1.67;1.57;;;17.50;97.30;;;;;;4956167;28;20187;-67
2023/08/06 08:25:14;;;;;;;1.10;1.00;;;17.60;97.30;;;;;;4953423;28;20498;-67
2023/08/06 08:27:39;;;;;;;2.80;1.40;;;17.60;97.30;;;;;;4953648;28;20557;-67
2023/08/06 08:30:05;;;;;;;3.10;1.77;;;17.70;97.30;;;;;;4946113;29;20514;-67
2023/08/06 08:32:31;;;;;;;1.50;1.40;;;17.70;97.30;;;;;;4953586;29;20214;-67
2023/08/06 08:34:56;;;;;;;1.00;0.90;;;17.70;97.30;;;;;;4953035;28;20508;-66
2023/08/06 08:37:23;;;;;;;1.20;1.10;;;17.70;97.30;;;;;;4954812;28;20219;-67
2023/08/06 08:39:49;;;;;;;1.63;1.40;;;17.80;97.30;;;;;;4952924;28;20187;-67
2023/08/06 08:42:15;;;;;;;1.10;1.00;;;17.80;97.30;;;;;;4952666;28;20490;-67
2023/08/06 08:44:42;;;;;;;1.93;1.00;;;17.80;97.30;;;;;;4953218;28;20619;-66
2023/08/06 08:47:09;;;;;;;1.07;0.97;;;17.90;97.30;;;;;;4952896;28;20430;-66
2023/08/06 08:49:35;;;;;;;1.13;1.03;;;18.00;97.30;;;;;;4952119;28;20473;-66
2023/08/06 08:52:02;;;;;;;1.10;1.00;;;18.00;97.30;;;;;;4953086;28;20442;-67
2023/08/06 08:54:30;;;;;;;1.07;0.97;;;18.10;97.30;;;;;;4953218;28;20501;-66
2023/08/06 08:56:56;;;;;;;0.90;0.80;;;18.10;97.30;;;;;;4952823;28;20569;-66
2023/08/06 08:59:23;;;;;;;0.90;0.80;;;18.20;97.30;;;;;;4953113;28;20423;-66
2023/08/06 09:01:51;;;;;;;1.10;1.00;;;18.30;97.30;;;;;;4951303;28;20466;-66
2023/08/06 09:04:18;;;;;;;0.90;0.80;;;18.40;97.30;;;;;;4951667;28;20423;-66
2023/08/06 09:06:49;;;;;;;1.67;1.67;;;18.40;97.30;;;;;;4952684;28;20427;-67
2023/08/06 09:09:33;;;;;;;1.23;1.17;;;18.50;97.30;;;;;;4952440;28;20431;-66
2023/08/06 09:12:04;;;;;;;1.80;1.10;;;18.50;97.30;;;;;;4948678;28;20478;-66
2023/08/06 09:14:29;;;;;;;1.00;0.90;;;18.60;97.30;;;;;;4948563;28;20629;-66
2023/08/06 09:16:56;;;;;;;1.10;1.00;;;18.60;97.30;;;;;;4949494;28;20470;-66
2023/08/06 09:19:21;;;;;;;1.00;0.90;;;18.70;97.30;;;;;;4951408;28;20644;-66
2023/08/06 09:21:51;;;;;;;2.50;1.10;;;18.80;97.30;;;;;;4951175;29;20457;-66
2023/08/06 09:24:17;;;;;;;1.10;1.00;;;18.80;97.30;;;;;;4951706;28;20650;-66
2023/08/06 09:26:44;;;;;;;0.97;0.87;;;18.90;97.30;;;;;;4952483;29;20462;-67
2023/08/06 09:29:14;;;;;;;1.33;1.23;;;19.00;97.30;;;;;;4953969;28;20474;-67
2023/08/06 09:31:52;;;;;;;1.20;1.00;;;19.00;97.30;;;;;;4952633;29;20434;-66
2023/08/06 09:34:21;;;;;;;1.20;1.10;;;19.10;97.30;;;;;;4945957;29;20473;-65
2023/08/06 09:36:48;;;;;;;2.87;2.70;;;19.10;97.30;;;;;;4959753;28;20470;-66
2023/08/06 09:39:15;;;;;;;1.17;1.17;;;19.10;97.30;;;;;;4953737;28;20423;-66
2023/08/06 09:41:41;;;;;;;1.20;1.10;;;19.20;97.30;;;;;;4951228;28;20950;-66
2023/08/06 09:44:15;;;;;;;1.60;1.50;;;19.30;97.30;;;;;;4952533;28;20429;-66
2023/08/06 09:46:41;;;;;;;1.73;1.63;;;19.40;97.30;;;;;;4951324;28;21146;-66
2023/08/06 09:49:08;;;;;;;1.40;1.30;;;19.50;97.30;;;;;;4953359;28;20439;-67
2023/08/06 09:51:34;;;;;;;1.07;0.97;;;19.50;97.30;;;;;;4950781;28;20207;-68
2023/08/06 09:54:01;;;;;;;2.53;1.43;;;19.60;97.30;;;;;;4953205;28;20435;-67
2023/08/06 09:56:28;;;;;;;1.00;0.90;;;19.60;97.30;;;;;;4952384;28;20462;-67
2023/08/06 09:58:55;;;;;;;1.13;1.03;;;19.60;97.30;;;;;;4951268;29;20454;-66
2023/08/06 10:01:22;;;;;;;1.20;1.10;;;19.60;97.30;;;;;;4952876;28;20447;-66
2023/08/06 10:03:50;;;;;;;1.00;0.90;;;19.70;97.30;;;;;;4951427;28;20705;-66
2023/08/06 10:06:16;;;;;;;0.90;0.80;;;19.70;97.30;;;;;;4952912;28;20967;-66
2023/08/06 10:08:42;;;;;;;1.20;1.10;;;19.70;97.30;;;;;;4951561;28;20427;-66
2023/08/06 10:11:08;;;;;;;1.30;1.20;;;19.80;97.30;;;;;;4945415;28;20795;-65
2023/08/06 10:13:35;;;;;;;1.27;1.17;;;19.80;97.30;;;;;;4938412;29;20246;-66
2023/08/06 10:16:02;;;;;;;1.40;1.17;;;19.80;97.30;;;;;;4960709;23;20503;-66
2023/08/06 10:18:28;;;;;;;2.40;2.20;;;19.90;97.30;;;;;;4932674;29;20448;-66
2023/08/06 10:20:54;;;;;;;2.93;2.20;;;19.90;97.30;;;;;;4945137;29;20461;-65
2023/08/06 10:23:32;;;;;;;0.90;0.80;;;20.00;97.30;;;;;;4943951;28;20438;-66
2023/08/06 10:25:59;;;;;;;2.50;2.13;;;20.10;97.30;;;;;;4944519;28;20196;-66
2023/08/06 10:28:37;;;;;;;0.80;0.80;;;20.20;97.30;;;;;;4946270;29;20459;-66
2023/08/06 10:31:06;;;;;;;1.00;0.90;;;20.30;97.30;;;;;;4939216;29;20451;-66
2023/08/06 10:33:45;;;;;;;1.83;1.50;;;20.40;97.30;;;;;;4932110;29;20428;-66
2023/08/06 10:36:12;;;;;;;0.93;0.83;;;20.50;97.30;;;;;;4942074;29;20466;-66
2023/08/06 10:38:48;;;;;;;1.20;1.10;;;20.50;97.30;;;;;;4940850;29;20494;-66
2023/08/06 10:41:32;;;;;;;3.13;1.10;;;20.60;97.30;;;;;;4939038;29;20442;-66
2023/08/06 10:44:11;;;;;;;1.10;1.00;;;20.70;97.30;;;;;;4936872;29;20427;-66
2023/08/06 10:46:38;;;;;;;0.93;0.83;;;20.60;97.10;;;;;;4932637;29;20491;-67
2023/08/06 10:49:04;;;;;;;2.20;1.10;;;20.60;95.20;;;;;;4938341;29;20457;-66
2023/08/06 10:51:30;;;;;;;1.20;1.20;;;20.60;95.40;;;;;;4941181;28;20529;-66
2023/08/06 10:53:57;;;;;;;1.47;1.37;;;20.60;95.40;;;;;;4936676;29;20980;-66
2023/08/06 10:56:27;;;;;;;1.63;1.20;;;20.60;95.60;;;;;;4940442;29;20454;-65
2023/08/06 10:58:56;;;;;;;1.53;0.90;;;20.60;95.40;;;;;;4937530;29;21081;-66
2023/08/06 11:01:23;;;;;;;1.53;1.47;;;20.70;96.00;;;;;;4936768;29;20471;-66
2023/08/06 11:03:50;;;;;;;2.03;1.00;;;20.80;96.80;;;;;;4932127;28;20423;-66
2023/08/06 11:06:23;;;;;;;1.00;0.90;;;20.90;96.20;;;;;;4931497;29;20490;-66
2023/08/06 11:08:57;;;;;;;1.70;1.60;;;21.00;95.30;;;;;;4931287;29;20416;-65
2023/08/06 11:11:23;;;;;;;2.00;1.43;;;21.10;95.80;;;;;;4929676;29;20458;-66
2023/08/06 11:13:51;;;;;;;1.53;1.33;;;21.20;95.60;;;;;;4929862;29;20490;-66
2023/08/06 11:16:27;;;;;;;1.00;0.90;;;21.30;94.90;;;;;;4930840;29;20479;-66
2023/08/06 11:18:54;;;;;;;2.50;1.20;;;21.30;94.50;;;;;;4936840;29;20422;-65
2023/08/06 11:21:21;;;;;;;1.10;1.00;;;21.40;94.30;;;;;;4931577;29;20436;-65
2023/08/06 11:23:46;;;;;;;0.77;0.70;;;21.50;93.40;;;;;;4932103;29;20444;-66
2023/08/06 11:26:12;;;;;;;1.17;1.07;;;21.50;93.70;;;;;;4934237;29;20463;-66
2023/08/06 11:28:37;;;;;;;1.30;1.13;;;21.60;94.40;;;;;;4932425;29;20184;-65
2023/08/06 11:31:03;;;;;;;1.00;0.90;;;21.60;93.50;;;;;;4932586;29;20207;-66
2023/08/06 11:33:29;;;;;;;1.40;1.30;;;21.60;91.40;;;;;;4932576;29;20191;-66
2023/08/06 11:35:57;;;;;;;0.83;0.77;;;21.70;91.00;;;;;;4939708;29;20474;-66
2023/08/06 11:38:28;;;;;;;1.70;1.30;;;21.70;90.50;;;;;;4932379;29;20420;-66
2023/08/06 11:40:54;;;;;;;1.33;1.33;;;21.80;90.70;;;;;;4932271;29;20434;-66
2023/08/06 11:43:22;;;;;;;1.30;1.13;;;21.90;91.10;;;;;;4930167;29;20943;-67
2023/08/06 11:45:48;;;;;;;2.37;2.10;;;22.00;91.50;;;;;;4932584;29;20424;-66
2023/08/06 11:48:14;;;;;;;1.10;1.00;;;22.10;89.80;;;;;;4930800;29;20440;-66
2023/08/06 11:50:39;;;;;;;1.03;0.93;;;22.10;89.30;;;;;;4930910;29;20462;-65
2023/08/06 11:53:05;;;;;;;0.93;0.83;;;22.20;90.10;;;;;;4930968;29;20682;-66
2023/08/06 11:55:33;;;;;;;0.93;0.93;;;22.20;90.20;;;;;;4931127;29;20238;-66
2023/08/06 11:58:02;;;;;;;1.20;1.10;;;22.30;91.00;;;;;;4930607;29;20192;-66
2023/08/06 12:00:29;;;;;;;1.10;1.00;;;22.40;89.80;;;;;;4930889;29;20594;-66
2023/08/06 12:02:55;;;;;;;1.00;0.90;;;22.50;89.10;;;;;;4930662;29;20516;-65
2023/08/06 12:05:25;;;;;;;0.90;0.80;;;22.50;89.80;;;;;;4931118;29;20515;-65
2023/08/06 12:07:52;;;;;;;1.37;1.23;;;22.60;89.80;;;;;;4932166;29;20570;-65
2023/08/06 12:10:20;;;;;;;0.97;0.93;;;22.60;89.20;;;;;;4930410;29;20424;-66
2023/08/06 12:12:46;;;;;;;1.23;1.13;;;22.60;87.90;;;;;;4932213;29;20426;-65
2023/08/06 12:15:12;;;;;;;1.10;1.00;;;22.50;88.50;;;;;;4932179;29;20416;-66
2023/08/06 12:17:38;;;;;;;0.93;0.90;;;22.50;88.60;;;;;;4932044;29;20267;-66
2023/08/06 12:20:05;;;;;;;1.30;1.20;;;22.50;88.50;;;;;;4932026;29;20526;-66
2023/08/06 12:22:35;;;;;;;1.37;1.07;;;22.40;89.00;;;;;;4931886;29;20416;-62
2023/08/06 12:25:07;;;;;;;0.90;0.80;;;22.40;88.90;;;;;;4930446;29;20435;-65
2023/08/06 12:27:37;;;;;;;2.33;1.30;;;22.40;88.80;;;;;;4932113;29;20427;-65
2023/08/06 12:30:04;;;;;;;1.03;1.03;;;22.40;88.40;;;;;;4931805;29;20522;-66
2023/08/06 12:32:29;;;;;;;1.30;1.10;;;22.40;89.30;;;;;;4931348;29;20614;-67
2023/08/06 12:34:55;;;;;;;1.00;0.90;;;22.40;90.20;;;;;;4930208;29;21126;-66
2023/08/06 12:37:21;;;;;;;1.10;1.00;;;22.50;89.20;;;;;;4931234;29;20579;-66
2023/08/06 12:39:47;;;;;;;0.90;0.87;;;22.50;88.70;;;;;;4929631;29;20180;-66
2023/08/06 12:42:13;;;;;;;1.93;1.20;;;22.60;90.30;;;;;;4931772;29;20716;-65
2023/08/06 12:44:38;;;;;;;1.33;1.23;;;22.60;88.10;;;;;;4931958;29;20510;-66
2023/08/06 12:47:04;;;;;;;1.10;0.90;;;22.60;87.20;;;;;;4930599;29;20188;-66
2023/08/06 12:49:31;;;;;;;1.10;1.00;;;22.60;88.00;;;;;;4932107;29;20669;-65
2023/08/06 12:51:58;;;;;;;1.07;1.00;;;22.70;88.60;;;;;;4931690;29;20239;-66
2023/08/06 12:54:23;;;;;;;0.90;0.80;;;22.70;87.90;;;;;;4931567;29;20526;-66
2023/08/06 12:56:50;;;;;;;1.03;0.93;;;22.80;88.30;;;;;;4935337;29;20553;-67
2023/08/06 12:59:17;;;;;;;0.90;0.80;;;22.80;87.70;;;;;;4934941;29;20242;-67
2023/08/06 13:01:43;;;;;;;1.40;1.30;;;22.80;87.10;;;;;;4934817;29;20441;-66
2023/08/06 13:04:08;;;;;;;1.67;1.10;;;22.70;88.50;;;;;;4933643;29;20846;-67
2023/08/06 13:06:37;;;;;;;1.00;0.90;;;22.70;89.10;;;;;;4933969;29;20479;-68
2023/08/06 13:09:12;;;;;;;1.00;0.90;;;22.60;89.10;;;;;;4934852;29;20252;-67
2023/08/06 13:11:40;;;;;;;1.00;0.90;;;22.50;89.60;;;;;;4933511;29;20450;-67
2023/08/06 13:14:08;;;;;;;2.20;1.10;;;22.40;89.40;;;;;;4933427;29;20467;-66
2023/08/06 13:16:34;;;;;;;1.00;0.90;;;22.40;89.50;;;;;;4934758;29;20471;-67
2023/08/06 13:19:00;;;;;;;0.90;0.80;;;22.50;89.60;;;;;;4937671;29;20823;-67
2023/08/06 13:21:36;;;;;;;0.90;0.80;;;22.50;89.30;;;;;;4925800;29;20477;-67
2023/08/06 13:24:02;;;;;;;1.47;1.40;;;22.60;89.00;;;;;;4933354;29;20427;-68
2023/08/06 13:26:31;;;;;;;1.00;0.90;;;22.60;88.60;;;;;;4933609;29;20530;-68
2023/08/06 13:28:58;;;;;;;1.23;1.13;;;22.50;87.60;;;;;;4934459;29;20880;-67
2023/08/06 13:31:24;;;;;;;0.80;0.70;;;22.40;87.80;;;;;;4934424;29;20443;-67
2023/08/06 13:33:50;;;;;;;1.00;0.90;;;22.30;88.10;;;;;;4933117;29;20487;-67
2023/08/06 13:36:16;;;;;;;1.27;0.93;;;22.20;88.50;;;;;;4933810;29;20584;-68
2023/08/06 13:38:42;;;;;;;1.33;1.00;;;22.20;88.80;;;;;;4933284;29;20200;-67
2023/08/06 13:41:07;;;;;;;0.90;0.80;;;22.20;88.90;;;;;;4934539;29;20439;-68
2023/08/06 13:43:33;;;;;;;1.00;0.90;;;22.20;88.20;;;;;;4933623;29;20420;-68
2023/08/06 13:45:59;;;;;;;0.80;0.77;;;22.20;88.00;;;;;;4932175;29;20700;-68
2023/08/06 13:48:24;;;;;;;1.00;0.90;;;22.20;88.40;;;;;;4927166;29;20191;-67
2023/08/06 13:50:50;;;;;;;1.40;1.30;;;22.20;87.90;;;;;;4930622;29;20676;-67
2023/08/06 13:53:15;;;;;;;1.03;0.93;;;22.20;88.40;;;;;;4936769;29;20730;-68
2023/08/06 13:55:41;;;;;;;0.90;0.90;;;22.20;88.20;;;;;;4930828;29;20242;-71
2023/08/06 13:58:08;;;;;;;1.03;0.93;;;22.30;87.80;;;;;;4932829;29;20276;-69
2023/08/06 14:00:35;;;;;;;3.57;1.07;;;22.30;88.30;;;;;;4933370;29;20732;-69
2023/08/06 14:03:01;;;;;;;1.20;1.10;;;22.40;87.80;;;;;;4932371;29;20523;-68
2023/08/06 14:05:26;;;;;;;1.10;1.00;;;22.40;87.10;;;;;;4936692;28;20515;-67
2023/08/06 14:07:52;;;;;;;1.10;1.00;;;22.50;87.20;;;;;;4933672;29;20271;-70
2023/08/06 14:10:17;;;;;;;1.00;0.90;;;22.50;87.50;;;;;;4930846;29;20847;-67
2023/08/06 14:12:43;;;;;;;0.97;0.87;;;22.60;86.80;;;;;;4935484;29;20179;-68
2023/08/06 14:15:10;;;;;;;2.70;2.50;;;22.70;87.20;;;;;;4936553;28;20187;-68
2023/08/06 14:17:36;;;;;;;0.90;0.80;;;22.80;87.00;;;;;;4932240;29;20216;-68
2023/08/06 14:20:04;;;;;;;0.90;0.80;;;23.00;87.10;;;;;;4932247;29;20485;-68
2023/08/06 14:22:31;;;;;;;0.90;0.80;;;23.40;87.30;;;;;;4932945;29;20202;-67
2023/08/06 14:24:57;;;;;;;0.90;0.80;;;23.70;85.80;;;;;;4932309;29;20427;-68
2023/08/06 14:27:23;;;;;;;0.90;0.80;;;23.90;85.00;;;;;;4932077;29;20586;-69
2023/08/06 14:29:48;;;;;;;0.90;0.90;;;23.90;84.40;;;;;;4931714;29;21023;-67
2023/08/06 14:32:17;;;;;;;0.90;0.80;;;24.00;84.40;;;;;;4932222;29;20199;-67
2023/08/06 14:34:43;;;;;;;0.90;0.80;;;24.10;84.20;;;;;;4933220;29;20926;-69
2023/08/06 14:37:09;;;;;;;0.90;0.80;;;24.20;82.50;;;;;;4932044;29;20483;-69
2023/08/06 14:39:35;;;;;;;0.80;0.70;;;24.30;84.60;;;;;;4931473;29;20947;-70
2023/08/06 14:42:00;;;;;;;1.17;1.00;;;24.30;82.10;;;;;;4931740;29;20192;-69
2023/08/06 14:44:26;;;;;;;1.20;1.10;;;24.30;81.50;;;;;;4931978;29;20684;-68
2023/08/06 14:46:51;;;;;;;1.13;0.90;;;24.30;83.20;;;;;;4931675;29;20187;-68
2023/08/06 14:49:17;;;;;;;1.43;1.33;;;24.30;82.50;;;;;;4930892;29;20686;-68
2023/08/06 14:51:42;;;;;;;1.33;1.10;;;24.40;83.00;;;;;;4930859;29;20679;-68
2023/08/06 14:54:08;;;;;;;1.37;1.23;;;24.40;83.20;;;;;;4930590;29;20190;-68
2023/08/06 14:56:33;;;;;;;0.90;0.80;;;24.40;82.40;;;;;;4931915;29;20223;-68
2023/08/06 14:58:59;;;;;;;0.97;0.87;;;24.40;83.00;;;;;;4931398;29;20191;-69
2023/08/06 15:01:25;;;;;;;0.90;0.80;;;24.50;82.00;;;;;;4931026;29;20199;-69
2023/08/06 15:03:50;;;;;;;0.80;0.70;;;24.40;82.90;;;;;;4931043;29;20178;-68
2023/08/06 15:06:16;;;;;;;1.97;1.53;;;24.40;82.20;;;;;;4939863;29;20751;-68
2023/08/06 15:08:43;;;;;;;1.00;0.90;;;24.30;81.70;;;;;;4929490;29;20186;-70
2023/08/06 15:11:09;;;;;;;0.80;0.70;;;24.20;81.60;;;;;;4929264;29;20211;-68
2023/08/06 15:13:35;;;;;;;0.90;0.80;;;24.00;82.40;;;;;;4928663;29;20424;-68
2023/08/06 15:16:00;;;;;;;1.10;1.00;;;23.90;83.40;;;;;;4928985;29;20250;-68
2023/08/06 15:18:26;;;;;;;1.00;0.90;;;23.80;84.20;;;;;;4932394;29;20187;-68
2023/08/06 15:20:51;;;;;;;1.10;1.00;;;23.70;83.90;;;;;;4932123;29;20203;-67
2023/08/06 15:23:17;;;;;;;0.90;0.80;;;23.60;84.30;;;;;;4931324;29;20176;-69
2023/08/06 15:25:42;;;;;;;1.30;1.10;;;23.50;85.00;;;;;;4931590;29;20176;-68
2023/08/06 15:28:08;;;;;;;1.50;1.30;;;23.40;84.40;;;;;;4930926;29;20188;-68
2023/08/06 15:30:33;;;;;;;0.90;0.80;;;23.40;84.70;;;;;;4931279;29;20211;-69
2023/08/06 15:32:59;;;;;;;0.80;0.80;;;23.20;87.90;;;;;;4932404;29;20182;-71
2023/08/06 15:35:25;;;;;;;1.83;1.63;;;23.00;90.20;;;;;;4932942;29;20214;-69
2023/08/06 15:37:50;;;;;;;1.57;1.40;;;22.80;91.70;;;;;;4931764;29;20239;-70
2023/08/06 15:40:16;;;;;;;1.40;1.07;;;22.60;92.60;;;;;;4929344;29;20183;-70
2023/08/06 15:42:41;;;;;;;1.90;1.20;;;22.40;93.20;;;;;;4929898;29;20172;-69
2023/08/06 15:45:07;;;;;;;1.50;1.13;;;22.20;93.60;;;;;;4931532;29;20206;-68
2023/08/06 15:47:40;;;;;;;1.33;1.27;;;22.10;94.40;;;;;;4931861;29;20807;-68
2023/08/06 15:50:08;;;;;;;1.80;1.77;;;22.00;95.00;;;;;;4931046;29;20431;-68
2023/08/06 15:52:34;;;;;;;1.47;1.40;;;21.90;95.00;;;;;;4927981;29;20827;-68
2023/08/06 15:55:04;;;;;;;1.23;1.13;;;21.90;95.10;;;;;;4931101;28;20412;-70
2023/08/06 15:57:31;;;;;;;1.27;1.17;;;21.90;95.30;;;;;;4925057;29;20526;-69
2023/08/06 15:59:56;;;;;;;1.00;0.90;;;21.90;94.50;;;;;;4932391;29;20486;-69
2023/08/06 16:02:24;;;;;;;0.93;0.90;;;22.00;94.20;;;;;;4931807;29;20956;-68
2023/08/06 16:04:49;;;;;;;1.10;1.00;;;22.10;93.80;;;;;;4938791;28;20168;-68
2023/08/06 16:07:15;;;;;;;1.50;1.40;;;22.20;94.00;;;;;;4930649;29;20812;-69
2023/08/06 16:09:40;;;;;;;1.03;0.93;;;22.40;94.00;;;;;;4931174;29;20183;-69
2023/08/06 16:12:06;;;;;;;1.20;1.20;;;22.60;93.60;;;;;;4931946;29;20216;-68
2023/08/06 16:14:32;;;;;;;1.90;1.80;;;22.70;94.30;;;;;;4932200;29;20184;-70
2023/08/06 16:19:25;;;;;;;1.93;1.10;;;22.60;92.70;;;;;;4947931;29;20219;-68
2023/08/06 16:21:51;;;;;;;1.60;1.50;;;22.60;93.00;;;;;;4950771;28;20526;-68
2023/08/06 16:24:16;;;;;;;1.20;1.10;;;22.70;93.30;;;;;;4922145;29;20733;-69
2023/08/06 16:26:42;;;;;;;1.20;1.10;;;22.80;93.20;;;;;;4925027;29;20290;-69
2023/08/06 16:29:07;;;;;;;1.77;1.67;;;22.90;93.30;;;;;;4929372;29;20188;-69
2023/08/06 16:31:33;;;;;;;1.43;1.23;;;22.90;93.00;;;;;;4935287;29;20200;-69
2023/08/06 16:33:58;;;;;;;1.00;1.00;;;22.90;92.80;;;;;;4948252;28;20193;-68
2023/08/06 16:36:25;;;;;;;1.43;1.33;;;22.90;93.30;;;;;;4952590;28;20219;-68
2023/08/06 16:38:50;;;;;;;2.33;1.70;;;22.90;93.60;;;;;;4942850;28;20274;-69
2023/08/06 16:41:17;;;;;;;1.80;1.53;;;22.90;94.10;;;;;;4950169;28;20542;-68
2023/08/06 16:43:43;;;;;;;1.53;1.47;;;22.90;93.60;;;;;;4933874;29;20190;-70
2023/08/06 16:46:09;;;;;;;2.27;1.63;;;22.90;92.80;;;;;;4950237;28;20431;-68
2023/08/06 16:48:35;;;;;;;1.47;1.20;;;22.60;93.00;;;;;;4935358;29;20644;-69